| time (UTC) | temp F | wind direction | speed knots | gust knots | rain 1hr in | rain 24hr in | rain mn in | humidity % | barometer mb |
| 20260505100513 | 41 | 104 | 1.7 | 2.6 | 0.00 | 0.00 | 0.00 | 50 | 1005.4 |
| 20260505100013 | 41 | 137 | 1.7 | 1.7 | 0.00 | 0.00 | 0.00 | 49 | 1005.4 |
| 20260505095523 | 41 | 142 | 1.7 | 1.7 | 0.00 | 0.00 | 0.00 | 48 | 1005.8 |
| 20260505095013 | 41 | 153 | 1.7 | 2.6 | 0.00 | 0.00 | 0.00 | 48 | 1005.4 |
| 20260505094513 | 41 | 188 | 0.9 | 2.6 | 0.00 | 0.00 | 0.00 | 49 | 1005.4 |
| 20260505094003 | 41 | 115 | 0.9 | 0.9 | 0.00 | 0.00 | 0.00 | 49 | 1005.8 |
| 20260505093513 | 41 | 140 | 1.7 | 1.7 | 0.00 | 0.00 | 0.00 | 49 | 1005.4 |
| 20260505093013 | 40 | 100 | 1.7 | 2.6 | 0.00 | 0.00 | 0.00 | 49 | 1005.4 |
| 20260505092523 | 41 | 135 | 0.9 | 1.7 | 0.00 | 0.00 | 0.00 | 49 | 1005.1 |
| 20260505092013 | 41 | 56 | 0.9 | 0.9 | 0.00 | 0.00 | 0.00 | 48 | 1005.1 |
| 20260505091513 | 41 | 150 | 0.0 | 1.7 | 0.00 | 0.00 | 0.00 | 48 | 1005.4 |
| 20260505091238 | 41 | 227 | 1.7 | 2.6 | 0.00 | 0.00 | 0.00 | 48 | 1004.7 |
| 20260505090520 | 41 | 231 | 0.9 | 1.7 | 0.00 | 0.00 | 0.00 | 48 | 1004.7 |
| 20260505090013 | 42 | 121 | 0.0 | 1.7 | 0.00 | 0.00 | 0.00 | 48 | 1004.7 |
| 20260505085513 | 42 | 136 | 0.9 | 0.9 | 0.00 | 0.00 | 0.00 | 48 | 1004.7 |
| 20260505085020 | 42 | 200 | 1.7 | 2.6 | 0.00 | 0.00 | 0.00 | 47 | 1004.4 |
| 20260505084513 | 43 | 29 | 0.9 | 0.9 | 0.00 | 0.00 | 0.00 | 47 | 1004.4 |
| 20260505084003 | 42 | 354 | 1.7 | 2.6 | 0.00 | 0.00 | 0.00 | 47 | 1004.1 |
| 20260505083513 | 43 | 346 | 2.6 | 2.6 | 0.00 | 0.00 | 0.00 | 47 | 1004.1 |
| 20260505083013 | 43 | 336 | 1.7 | 2.6 | 0.00 | 0.00 | 0.00 | 46 | 1004.1 |
| 20260505082523 | 43 | 3 | 0.9 | 1.7 | 0.00 | 0.00 | 0.00 | 46 | 1004.1 |
| 20260505082223 | 43 | 189 | 0.9 | 1.7 | 0.00 | 0.00 | 0.00 | 47 | 1004.1 |
| 20260505081523 | 43 | 338 | 2.6 | 3.5 | 0.00 | 0.00 | 0.00 | 47 | 1004.4 |
| 20260505081022 | 43 | 311 | 1.7 | 1.7 | 0.00 | 0.00 | 0.00 | 47 | 1004.1 |
| 20260505080516 | 44 | 22 | 0.9 | 1.7 | 0.00 | 0.00 | 0.00 | 45 | 1004.1 |
| 20260505080227 | 44 | 22 | 1.7 | 1.7 | 0.00 | 0.00 | 0.00 | 45 | 1004.1 |
| 20260505075523 | 44 | 40 | 2.6 | 2.6 | 0.00 | 0.00 | 0.00 | 45 | 1003.7 |
| 20260505075013 | 44 | 76 | 0.9 | 2.6 | 0.00 | 0.00 | 0.00 | 45 | 1004.1 |
| 20260505074513 | 44 | 355 | 1.7 | 1.7 | 0.00 | 0.00 | 0.00 | 44 | 1003.7 |
| 20260505074023 | 45 | 56 | 0.0 | 1.7 | 0.00 | 0.00 | 0.00 | 44 | 1003.7 |
| 20260505073513 | 45 | 237 | 1.7 | 3.5 | 0.00 | 0.00 | 0.00 | 44 | 1003.7 |
| 20260505073010 | 45 | 317 | 1.7 | 3.5 | 0.00 | 0.00 | 0.00 | 44 | 1003.7 |
| 20260505072513 | 46 | 317 | 0.9 | 5.2 | 0.00 | 0.00 | 0.00 | 43 | 1003.7 |
| 20260505072012 | 46 | 333 | 1.7 | 3.5 | 0.00 | 0.00 | 0.00 | 43 | 1003.7 |
| 20260505071738 | 46 | 355 | 5.2 | 5.2 | 0.00 | 0.00 | 0.00 | 44 | 1003.7 |
| 20260505071013 | 46 | 353 | 3.5 | 5.2 | 0.00 | 0.00 | 0.00 | 44 | 1003.7 |
| 20260505070513 | 46 | 319 | 3.5 | 5.2 | 0.00 | 0.00 | 0.00 | 45 | 1003.7 |
| 20260505070023 | 46 | 13 | 2.6 | 2.6 | 0.00 | 0.00 | 0.00 | 46 | 1003.7 |
| 20260505065513 | 46 | 355 | 2.6 | 3.5 | 0.00 | 0.00 | 0.00 | 46 | 1003.7 |
| 20260505065013 | 46 | 8 | 3.5 | 4.3 | 0.00 | 0.00 | 0.00 | 46 | 1004.1 |
| 20260505064513 | 47 | 358 | 3.5 | 4.3 | 0.00 | 0.00 | 0.00 | 46 | 1003.4 |
| 20260505064022 | 47 | 351 | 4.3 | 6.1 | 0.00 | 0.00 | 0.00 | 44 | 1003.4 |
| 20260505063513 | 47 | 339 | 1.7 | 4.3 | 0.00 | 0.00 | 0.00 | 44 | 1003.7 |
| 20260505063013 | 48 | 301 | 0.9 | 1.7 | 0.00 | 0.00 | 0.00 | 43 | 1003.4 |
| 20260505062738 | 48 | 306 | 4.3 | 6.1 | 0.00 | 0.00 | 0.00 | 42 | 1003.0 |
| 20260505062020 | 48 | 329 | 2.6 | 4.3 | 0.00 | 0.00 | 0.00 | 42 | 1003.0 |
| 20260505061513 | 48 | 315 | 1.7 | 5.2 | 0.00 | 0.00 | 0.00 | 43 | 1003.0 |
| 20260505061003 | 49 | 332 | 3.5 | 6.1 | 0.00 | 0.00 | 0.00 | 44 | 1003.4 |
| 20260505060520 | 49 | 333 | 3.5 | 3.5 | 0.00 | 0.00 | 0.00 | 44 | 1002.7 |
| 20260505060008 | 49 | 316 | 2.6 | 5.2 | 0.00 | 0.00 | 0.00 | 44 | 1003.0 |
| 20260505055522 | 49 | 357 | 2.6 | 4.3 | 0.00 | 0.00 | 0.00 | 43 | 1003.0 |
| 20260505055229 | 49 | 323 | 3.5 | 7.0 | 0.00 | 0.00 | 0.00 | 42 | 1003.0 |
| 20260505054513 | 50 | 307 | 4.3 | 7.8 | 0.00 | 0.00 | 0.00 | 42 | 1002.7 |
| 20260505054023 | 50 | 325 | 4.3 | 4.3 | 0.00 | 0.00 | 0.00 | 42 | 1002.7 |
| 20260505053521 | 50 | 356 | 7.8 | 9.6 | 0.00 | 0.00 | 0.00 | 41 | 1002.4 |
| 20260505053013 | 50 | 334 | 2.6 | 6.1 | 0.00 | 0.00 | 0.00 | 41 | 1002.0 |
| 20260505052512 | 50 | 325 | 4.3 | 4.3 | 0.00 | 0.00 | 0.00 | 41 | 1002.4 |
| 20260505052020 | 51 | 305 | 3.5 | 4.3 | 0.00 | 0.00 | 0.00 | 41 | 1002.4 |
| 20260505051513 | 51 | 356 | 5.2 | 7.0 | 0.00 | 0.00 | 0.00 | 41 | 1002.0 |
| 20260505051006 | 51 | 350 | 4.3 | 5.2 | 0.00 | 0.00 | 0.00 | 40 | 1002.0 |
| 20260505050513 | 52 | 310 | 5.2 | 8.7 | 0.00 | 0.00 | 0.00 | 39 | 1001.7 |
| 20260505041513 | 54 | 277 | 3.5 | 5.2 | 0.00 | 0.00 | 0.00 | 40 | 1000.3 |
| 20260505041022 | 54 | 334 | 3.5 | 7.0 | 0.00 | 0.00 | 0.00 | 40 | 1000.3 |
| 20260505040513 | 55 | 326 | 4.3 | 6.1 | 0.00 | 0.00 | 0.00 | 39 | 1000.3 |
| 20260505040013 | 55 | 318 | 5.2 | 7.0 | 0.00 | 0.00 | 0.00 | 39 | 1000.3 |
| 20260505035737 | 55 | 312 | 2.6 | 6.1 | 0.00 | 0.00 | 0.00 | 39 | 1000.0 |
| 20260505035013 | 55 | 329 | 5.2 | 6.1 | 0.00 | 0.00 | 0.00 | 39 | 1000.0 |
| 20260505034513 | 55 | 1 | 3.5 | 5.2 | 0.00 | 0.00 | 0.00 | 39 | 1000.0 |
| 20260505034022 | 56 | 329 | 6.1 | 7.0 | 0.00 | 0.00 | 0.00 | 39 | 999.7 |
| 20260505033513 | 56 | 339 | 6.1 | 10.4 | 0.00 | 0.00 | 0.00 | 38 | 999.7 |
| 20260505033013 | 56 | 342 | 2.6 | 8.7 | 0.00 | 0.00 | 0.00 | 38 | 999.7 |
| 20260505032523 | 56 | 344 | 2.6 | 4.3 | 0.00 | 0.00 | 0.00 | 40 | 999.3 |
| 20260505032013 | 56 | 139 | 3.5 | 6.1 | 0.00 | 0.00 | 0.00 | 39 | 998.6 |
| 20260505031513 | 57 | 14 | 0.9 | 3.5 | 0.00 | 0.00 | 0.00 | 39 | 998.6 |
| 20260505031023 | 57 | 349 | 1.7 | 3.5 | 0.00 | 0.00 | 0.00 | 38 | 998.3 |
| 20260505030521 | 57 | 30 | 3.5 | 4.3 | 0.00 | 0.00 | 0.00 | 37 | 998.0 |
| 20260505030008 | 57 | 316 | 7.0 | 8.7 | 0.00 | 0.00 | 0.00 | 36 | 998.0 |
| 20260505025522 | 58 | 338 | 3.5 | 5.2 | 0.00 | 0.00 | 0.00 | 35 | 997.6 |
| 20260505025236 | 58 | 333 | 7.0 | 7.8 | 0.00 | 0.00 | 0.00 | 35 | 997.6 |
| 20260505024513 | 58 | 324 | 3.5 | 6.1 | 0.00 | 0.00 | 0.00 | 35 | 998.0 |
| 20260505024003 | 58 | 325 | 8.7 | 9.6 | 0.00 | 0.00 | 0.00 | 34 | 997.6 |
| 20260505023520 | 58 | 330 | 5.2 | 9.6 | 0.00 | 0.00 | 0.00 | 33 | 997.6 |
| 20260505023008 | 58 | 311 | 5.2 | 11.3 | 0.00 | 0.00 | 0.00 | 33 | 998.0 |
| 20260505022523 | 59 | 315 | 7.0 | 9.6 | 0.00 | 0.00 | 0.00 | 33 | 998.0 |
| 20260505022020 | 59 | 310 | 5.2 | 7.0 | 0.00 | 0.00 | 0.00 | 34 | 998.0 |
| 20260505021523 | 59 | 255 | 2.6 | 4.3 | 0.00 | 0.00 | 0.00 | 34 | 997.6 |
| 20260505021023 | 60 | 353 | 3.5 | 4.3 | 0.00 | 0.00 | 0.00 | 33 | 997.6 |
| 20260505020737 | 60 | 331 | 4.3 | 9.6 | 0.00 | 0.00 | 0.00 | 33 | 997.3 |
| 20260505020013 | 60 | 314 | 7.0 | 8.7 | 0.00 | 0.00 | 0.00 | 33 | 997.0 |
| 20260505015513 | 60 | 338 | 2.6 | 6.1 | 0.00 | 0.00 | 0.00 | 33 | 997.0 |
| 20260505015013 | 60 | 334 | 4.3 | 5.2 | 0.00 | 0.00 | 0.00 | 34 | 997.0 |
| 20260505014513 | 61 | 358 | 7.0 | 7.0 | 0.00 | 0.00 | 0.00 | 34 | 996.6 |
| 20260505014023 | 62 | 329 | 4.3 | 5.2 | 0.00 | 0.00 | 0.00 | 34 | 996.3 |
| 20260505013513 | 62 | 335 | 6.1 | 7.8 | 0.00 | 0.00 | 0.00 | 33 | 996.3 |
| 20260505013013 | 62 | 343 | 3.5 | 5.2 | 0.00 | 0.00 | 0.00 | 33 | 996.3 |
| 20260505012738 | 62 | 297 | 3.5 | 4.3 | 0.00 | 0.00 | 0.00 | 33 | 995.9 |
| 20260505012013 | 63 | 328 | 4.3 | 5.2 | 0.00 | 0.00 | 0.00 | 32 | 995.9 |
| 20260505011513 | 63 | 253 | 5.2 | 6.1 | 0.00 | 0.00 | 0.00 | 31 | 995.9 |
| 20260505011237 | 63 | 1 | 2.6 | 7.0 | 0.00 | 0.00 | 0.00 | 31 | 995.6 |
| 20260505010513 | 63 | 332 | 5.2 | 5.2 | 0.00 | 0.00 | 0.00 | 31 | 995.6 |
| 20260505010013 | 63 | 268 | 2.6 | 7.0 | 0.00 | 0.00 | 0.00 | 31 | 995.9 |
| 20260505005523 | 64 | 346 | 5.2 | 7.0 | 0.00 | 0.00 | 0.00 | 30 | 995.6 |
| 20260505005013 | 64 | 208 | 0.9 | 2.6 | 0.00 | 0.00 | 0.00 | 30 | 995.6 |
| 20260505004513 | 65 | 311 | 4.3 | 5.2 | 0.00 | 0.00 | 0.00 | 30 | 995.3 |
| 20260505004022 | 65 | 168 | 2.6 | 4.3 | 0.00 | 0.00 | 0.00 | 29 | 995.3 |
| 20260505003513 | 65 | 251 | 3.5 | 5.2 | 0.00 | 0.00 | 0.00 | 29 | 995.3 |
| 20260505003013 | 66 | 326 | 7.0 | 10.4 | 0.00 | 0.00 | 0.00 | 29 | 994.9 |
| 20260505002523 | 66 | 195 | 2.6 | 3.5 | 0.00 | 0.00 | 0.00 | 29 | 994.9 |
| 20260505002013 | 66 | 344 | 4.3 | 6.1 | 0.00 | 0.00 | 0.00 | 30 | 994.6 |
| 20260505001513 | 66 | 189 | 1.7 | 3.5 | 0.00 | 0.00 | 0.00 | 30 | 994.6 |
| 20260505001023 | 66 | 287 | 3.5 | 4.3 | 0.00 | 0.00 | 0.00 | 30 | 994.6 |
| 20260505000513 | 66 | 278 | 0.9 | 5.2 | 0.00 | 0.00 | 0.00 | 29 | 994.2 |
| 20260505000013 | 67 | 187 | 1.7 | 3.5 | 0.00 | 0.00 | 0.00 | 29 | 994.2 |
| 20260504235522 | 67 | 321 | 8.7 | 12.2 | 0.00 | 0.00 | 0.00 | 29 | 994.2 |
| 20260504235011 | 67 | 318 | 4.3 | 5.2 | 0.00 | 0.00 | 0.00 | 29 | 994.2 |
| 20260504234723 | 68 | 284 | 3.5 | 7.0 | 0.00 | 0.00 | 0.00 | 30 | 994.2 |
| 20260504234022 | 68 | 317 | 1.7 | 2.6 | 0.00 | 0.00 | 0.00 | 29 | 993.9 |
| 20260504233516 | 68 | 318 | 1.7 | 7.0 | 0.00 | 0.00 | 0.00 | 30 | 993.9 |
| 20260504233228 | 68 | 309 | 2.6 | 5.2 | 0.00 | 0.00 | 0.00 | 30 | 994.2 |
| 20260504232513 | 68 | 24 | 4.3 | 4.3 | 0.00 | 0.00 | 0.00 | 31 | 994.2 |
| 20260504232236 | 68 | 332 | 6.1 | 10.4 | 0.00 | 0.00 | 0.00 | 30 | 993.6 |
| 20260504231513 | 69 | 337 | 6.1 | 7.8 | 0.00 | 0.00 | 0.00 | 30 | 993.9 |
| 20260504231003 | 69 | 155 | 0.0 | 4.3 | 0.00 | 0.00 | 0.00 | 30 | 993.6 |
| 20260504230505 | 69 | 268 | 0.9 | 2.6 | 0.00 | 0.00 | 0.00 | 29 | 993.6 |
| 20260504230444 | 69 | 269 | 0.0 | 8.7 | 0.00 | 0.00 | 0.00 | 29 | 993.9 |
| 20260504230423 | 69 | 325 | 7.0 | 8.7 | 0.00 | 0.00 | 0.00 | 29 | 993.9 |
| 20260504225013 | 70 | 259 | 1.7 | 5.2 | 0.00 | 0.00 | 0.00 | 29 | 993.6 |
| 20260504224513 | 70 | 285 | 0.9 | 6.1 | 0.00 | 0.00 | 0.00 | 29 | 993.6 |
| 20260504224023 | 71 | 322 | 10.4 | 11.3 | 0.00 | 0.00 | 0.00 | 29 | 993.6 |
| 20260504223520 | 71 | 222 | 4.3 | 8.7 | 0.00 | 0.00 | 0.00 | 29 | 993.6 |
| 20260504223013 | 71 | 300 | 4.3 | 5.2 | 0.00 | 0.00 | 0.00 | 30 | 993.6 |
| 20260504222513 | 72 | 320 | 2.6 | 7.8 | 0.00 | 0.00 | 0.00 | 31 | 993.6 |
| 20260504222013 | 72 | 309 | 5.2 | 12.2 | 0.00 | 0.00 | 0.00 | 32 | 993.2 |
| 20260504221513 | 72 | 263 | 1.7 | 5.2 | 0.00 | 0.00 | 0.00 | 32 | 993.6 |
| 20260504221023 | 72 | 235 | 4.3 | 8.7 | 0.00 | 0.00 | 0.00 | 32 | 993.2 |
| 20260504220513 | 73 | 177 | 8.7 | 10.4 | 0.00 | 0.00 | 0.00 | 31 | 993.2 |
| 20260504220013 | 73 | 225 | 5.2 | 7.8 | 0.00 | 0.00 | 0.00 | 31 | 993.2 |
| 20260504215522 | 73 | 165 | 3.5 | 5.2 | 0.00 | 0.00 | 0.00 | 32 | 992.6 |
| 20260504215008 | 73 | 35 | 2.6 | 5.2 | 0.00 | 0.00 | 0.00 | 32 | 992.9 |
| 20260504214523 | 73 | 324 | 5.2 | 10.4 | 0.00 | 0.00 | 0.00 | 31 | 992.6 |
| 20260504214023 | 73 | 277 | 2.6 | 6.1 | 0.00 | 0.00 | 0.00 | 32 | 992.6 |
| 20260504213720 | 74 | 256 | 2.6 | 6.1 | 0.00 | 0.00 | 0.00 | 31 | 992.6 |
| 20260504213443 | 74 | 262 | 6.1 | 7.8 | 0.00 | 0.00 | 0.00 | 32 | 992.6 |
| 20260504212523 | 74 | 297 | 3.5 | 6.1 | 0.00 | 0.00 | 0.00 | 32 | 992.6 |
| 20260504212013 | 75 | 319 | 2.6 | 6.1 | 0.00 | 0.00 | 0.00 | 31 | 992.6 |
| 20260504211513 | 75 | 315 | 6.1 | 7.8 | 0.00 | 0.00 | 0.00 | 31 | 992.2 |
| 20260504211023 | 75 | 250 | 7.8 | 8.7 | 0.00 | 0.00 | 0.00 | 30 | 992.2 |
| 20260504210520 | 75 | 298 | 11.3 | 11.3 | 0.00 | 0.00 | 0.00 | 30 | 992.2 |
| 20260504210013 | 76 | 237 | 7.0 | 7.8 | 0.00 | 0.00 | 0.00 | 30 | 992.2 |
| 20260504205503 | 76 | 342 | 3.5 | 5.2 | 0.00 | 0.00 | 0.00 | 31 | 992.2 |
| 20260504205442 | 76 | 281 | 2.6 | 3.5 | 0.00 | 0.00 | 0.00 | 32 | 992.2 |
| 20260504204513 | 77 | 211 | 4.3 | 7.0 | 0.00 | 0.00 | 0.00 | 32 | 992.2 |
| 20260504204023 | 77 | 247 | 5.2 | 7.8 | 0.00 | 0.00 | 0.00 | 33 | 992.2 |
| 20260504203513 | 76 | 213 | 5.2 | 5.2 | 0.00 | 0.00 | 0.00 | 32 | 991.9 |
| 20260504203013 | 77 | 201 | 4.3 | 6.1 | 0.00 | 0.00 | 0.00 | 32 | 991.9 |
| 20260504202523 | 76 | 268 | 3.5 | 5.2 | 0.00 | 0.00 | 0.00 | 32 | 991.9 |
| 20260504202013 | 77 | 202 | 7.0 | 7.8 | 0.00 | 0.00 | 0.00 | 31 | 992.2 |
| 20260504201513 | 77 | 172 | 3.5 | 5.2 | 0.00 | 0.00 | 0.00 | 32 | 991.9 |
| 20260504201023 | 76 | 70 | 1.7 | 4.3 | 0.00 | 0.00 | 0.00 | 32 | 991.9 |
| 20260504200520 | 76 | 198 | 4.3 | 6.1 | 0.00 | 0.00 | 0.00 | 33 | 992.2 |
| 20260504200013 | 76 | 214 | 7.0 | 13.0 | 0.00 | 0.00 | 0.00 | 32 | 992.2 |
| 20260504195513 | 76 | 288 | 4.3 | 4.3 | 0.00 | 0.00 | 0.00 | 32 | 992.2 |
| 20260504195020 | 76 | 191 | 6.1 | 7.0 | 0.00 | 0.00 | 0.00 | 33 | 992.2 |
| 20260504194513 | 75 | 208 | 2.6 | 6.1 | 0.00 | 0.00 | 0.00 | 32 | 992.2 |
| 20260504194003 | 76 | 275 | 1.7 | 4.3 | 0.00 | 0.00 | 0.00 | 32 | 991.9 |
| 20260504193513 | 76 | 204 | 3.5 | 7.0 | 0.00 | 0.00 | 0.00 | 32 | 992.2 |
| 20260504193013 | 76 | 217 | 7.8 | 7.8 | 0.00 | 0.00 | 0.00 | 32 | 992.2 |
| 20260504192523 | 75 | 185 | 4.3 | 5.2 | 0.00 | 0.00 | 0.00 | 32 | 992.2 |
| 20260504192013 | 75 | 178 | 4.3 | 10.4 | 0.00 | 0.00 | 0.00 | 32 | 992.6 |
| 20260504191513 | 76 | 202 | 6.1 | 7.0 | 0.00 | 0.00 | 0.00 | 31 | 992.2 |
| 20260504191022 | 76 | 285 | 3.5 | 7.0 | 0.00 | 0.00 | 0.00 | 32 | 992.2 |
| 20260504190511 | 75 | 319 | 2.6 | 6.1 | 0.00 | 0.00 | 0.00 | 31 | 992.2 |
| 20260504190222 | 76 | 213 | 4.3 | 11.3 | 0.00 | 0.00 | 0.00 | 30 | 992.2 |
| 20260504185523 | 76 | 311 | 1.7 | 7.8 | 0.00 | 0.00 | 0.00 | 30 | 992.6 |
| 20260504185013 | 76 | 234 | 7.8 | 9.6 | 0.00 | 0.00 | 0.00 | 30 | 992.2 |
| 20260504184522 | 76 | 210 | 8.7 | 11.3 | 0.00 | 0.00 | 0.00 | 30 | 992.6 |
| 20260504184013 | 77 | 245 | 3.5 | 5.2 | 0.00 | 0.00 | 0.00 | 30 | 992.2 |
| 20260504183513 | 78 | 223 | 7.8 | 10.4 | 0.00 | 0.00 | 0.00 | 30 | 992.2 |
| 20260504183023 | 78 | 206 | 7.0 | 9.6 | 0.00 | 0.00 | 0.00 | 29 | 992.2 |
| 20260504182513 | 78 | 230 | 3.5 | 7.8 | 0.00 | 0.00 | 0.00 | 30 | 992.2 |
| 20260504182013 | 77 | 200 | 2.6 | 7.0 | 0.00 | 0.00 | 0.00 | 30 | 992.2 |
| 20260504181513 | 77 | 255 | 9.6 | 12.2 | 0.00 | 0.00 | 0.00 | 30 | 992.6 |
| 20260504181023 | 76 | 160 | 5.2 | 5.2 | 0.00 | 0.00 | 0.00 | 30 | 992.2 |
| 20260504180513 | 76 | 213 | 3.5 | 10.4 | 0.00 | 0.00 | 0.00 | 30 | 992.6 |
| 20260504180013 | 76 | 180 | 8.7 | 12.2 | 0.00 | 0.00 | 0.00 | 30 | 992.2 |
| 20260504175522 | 75 | 232 | 9.6 | 12.2 | 0.00 | 0.00 | 0.00 | 30 | 992.6 |
| 20260504175020 | 75 | 224 | 2.6 | 5.2 | 0.00 | 0.00 | 0.00 | 30 | 992.6 |
| 20260504174513 | 75 | 191 | 4.3 | 7.0 | 0.00 | 0.00 | 0.00 | 30 | 992.6 |
| 20260504174238 | 76 | 237 | 7.0 | 9.6 | 0.00 | 0.00 | 0.00 | 30 | 992.6 |
| 20260504173727 | 75 | 211 | 7.0 | 10.4 | 0.00 | 0.00 | 0.00 | 30 | 992.9 |
| 20260504173013 | 75 | 214 | 6.1 | 9.6 | 0.00 | 0.00 | 0.00 | 30 | 992.9 |
| 20260504172523 | 75 | 204 | 10.4 | 11.3 | 0.00 | 0.00 | 0.00 | 30 | 992.9 |
| 20260504172020 | 75 | 213 | 5.2 | 8.7 | 0.00 | 0.00 | 0.00 | 31 | 992.9 |
| 20260504171513 | 75 | 283 | 8.7 | 13.0 | 0.00 | 0.00 | 0.00 | 31 | 993.2 |
| 20260504171003 | 75 | 289 | 7.0 | 8.7 | 0.00 | 0.00 | 0.00 | 30 | 992.9 |
| 20260504170513 | 75 | 174 | 7.0 | 10.4 | 0.00 | 0.00 | 0.00 | 31 | 992.9 |
| 20260504151022 | 67 | 224 | 5.2 | 5.2 | 0.00 | 0.00 | 0.00 | 44 | 994.9 |
| 20260504150513 | 67 | 116 | 3.5 | 4.3 | 0.00 | 0.00 | 0.00 | 45 | 994.9 |
| 20260504140736 | 64 | 187 | 1.7 | 1.7 | 0.00 | 0.00 | 0.00 | 48 | 995.9 |
| 20260504130521 | 58 | 180 | 4.3 | 5.2 | 0.00 | 0.00 | 0.00 | 56 | 997.3 |
| 20260504110513 | 52 | 134 | 1.7 | 5.2 | 0.00 | 0.00 | 0.00 | 72 | 998.6 |